• Join FlightAware (Why Join?)
  • Login
  • US Flag 
09:32PM EDT


 

Airport Tracker/Info


-or-


 

Live Flight TrackerFlight Track Log ✈ TAM3238 ✈ 26-Jul-2013 ✈ SBSP / CGH - SBUL / UDI

Flight Track Log - Related Links

Times and Time Zones

All times are in EDT time to prevent confusion due to time zone crossing. See the TAM3238 flight status page for this flight to view local times or setup timezone preferences in your user account.

Time Position Orientation Groundspeed Altitude Reporting Facility
EDT Latitude Longitude Course Direction KTS MPH feet Rate Location/Type
05:57PM -23.6230 -46.6470 84° East 122 140  Level FlightAware
05:59PM -23.6230 -46.6460 90° East 122 140  Level FlightAware
06:00PM -23.6230 -46.6470 270° West 122 140  Level FlightAware
06:01PM -23.6230 -46.6460 90° East 122 140  Level FlightAware
06:02PM -23.6240 -46.6600 266° West 122 140  Level FlightAware
06:02PM -23.6230 -46.6470 85° East 122 140  Level FlightAware
06:03PM -23.6240 -46.6600 265° West 122 140  Level FlightAware
06:04PM -23.6230 -46.6460 86° East 122 140  Level FlightAware
06:04PM -23.6240 -46.6600 266° West 122 140  Level FlightAware
06:07PM -23.3514 -46.7530 343° North  Level Estimated
06:08PM -23.2485 -46.7880 343° North  Level Estimated
06:09PM -23.1455 -46.8230 343° North  Level Estimated
06:10PM -23.0426 -46.8579 343° North  Level Estimated
06:11PM -22.9397 -46.8927 343° North  Level Estimated
06:12PM -22.8368 -46.9275 343° North  Level Estimated
06:13PM -22.7339 -46.9623 343° North  Level Estimated
06:14PM -22.6309 -46.9969 343° North  Level Estimated
06:15PM -22.5280 -47.0316 343° North  Level Estimated
06:16PM -22.4250 -47.0662 343° North  Level Estimated
06:17PM -22.3220 -47.1007 343° North  Level Estimated
06:18PM -22.2191 -47.1352 343° North  Level Estimated
06:19PM -22.1161 -47.1696 343° North  Level Estimated
06:20PM -22.0131 -47.2040 343° North  Level Estimated
06:21PM -21.9101 -47.2383 343° North  Level Estimated
06:22PM -21.8071 -47.2726 343° North  Level Estimated
06:23PM -21.7041 -47.3068 343° North  Level Estimated
06:24PM -21.6011 -47.3410 343° North  Level Estimated
06:25PM -21.4981 -47.3751 343° North  Level Estimated
06:26PM -21.3950 -47.4092 343° North  Level Estimated
06:27PM -21.2920 -47.4433 343° North  Level Estimated
06:28PM -21.1889 -47.4772 343° North  Level Estimated
06:29PM -21.0859 -47.5112 343° North  Level Estimated
06:30PM -20.9828 -47.5451 343° North  Level Estimated
06:31PM -20.8798 -47.5789 343° North  Level Estimated
06:32PM -20.7767 -47.6127 343° North  Level Estimated
06:33PM -20.6736 -47.6465 343° North  Level Estimated
06:34PM -20.5705 -47.6802 343° North  Level Estimated
06:35PM -20.4674 -47.7139 343° North  Level Estimated
06:36PM -20.3643 -47.7475 343° North  Level Estimated
06:37PM -20.2612 -47.7811 343° North  Level Estimated
06:38PM -20.1581 -47.8146 343° North  Level Estimated
06:39PM -20.0550 -47.8481 343° North  Level Estimated
06:40PM -19.9519 -47.8815 343° North  Level Estimated
06:41PM -19.8488 -47.9149 343° North  Level Estimated
06:42PM -19.7456 -47.9483 343° North  Level Estimated
06:43PM -19.6425 -47.9816 343° North  Level Estimated
06:44PM -19.5394 -48.0149 343° North  Level Estimated
06:45PM -19.4362 -48.0481 343° North  Level Estimated
06:46PM -19.3330 -48.0813 343° North  Level Estimated
06:47PM -19.2299 -48.1144 343° North  Level Estimated
06:48PM -19.1267 -48.1475 343° North  Level Estimated
06:49PM -19.0235 -48.1806 343° North  Level Estimated
06:50PM -18.9203 -48.2136 343° North  Level Estimated
06:51PM -18.8828 -48.2256 343° North  Level Estimated
06:52PM -18.8828 -48.2256 223° Southwest  Level Estimated
06:53PM -18.8828 -48.2256 223° Southwest  Level Estimated
06:54PM -18.8828 -48.2256 223° Southwest  Level Estimated
06:55PM -18.8828 -48.2256 223° Southwest  Level Estimated
06:56PM -18.8828 -48.2256 223° Southwest  Level Estimated
06:57PM -18.8828 -48.2256 223° Southwest  Level Estimated
06:58PM -18.8828 -48.2256 223° Southwest  Level Estimated
06:59PM -18.8828 -48.2256 223° Southwest  Level Estimated